Sertao Santana, Brazil
Current Conditions -  °F | °C
As of 3:00 PM on Friday 24 Oct 2014 (Local Time) from SBPA Reporting Station
Clear Clear  
Wind Chill: 81°   Ceiling: Unl
Heat Index: 82°   Visibility: 6mi
Dew Point: 63°   Wind: 12mph
Humidity: 54%   Direction: 320°NW
Pressure: 29.91"   Gusts: NA
Location:  30.46°S, 51.6°W
Report Text: SBPA 241700Z 32010KT 250V350 CAVOK 27/17 Q1013
Loading
Personal Weather Stations






























Interactive Weather Map
Tropical Storm Tracking
New forecast layout! Learn more

10-Day Weather Forecast

Advertisements
Track Severe Weather on mobile